createdAt,value
2022-08-27T00:01:52.365Z,21.91
2022-08-27T00:11:59.255Z,21.91
2022-08-27T00:22:05.231Z,21.92
2022-08-27T00:32:13.424Z,22.02
2022-08-27T00:42:19.726Z,21.88
2022-08-27T00:52:27.272Z,21.84
2022-08-27T01:02:33.471Z,21.90
2022-08-27T01:12:41.338Z,21.91
2022-08-27T01:22:47.211Z,21.91
2022-08-27T01:32:54.725Z,21.82
2022-08-27T01:44:20.996Z,21.63
2022-08-27T01:54:28.419Z,21.84
2022-08-27T02:04:34.867Z,21.84
2022-08-27T02:14:42.358Z,21.76
2022-08-27T02:24:48.394Z,21.84
2022-08-27T02:34:56.230Z,21.81
2022-08-27T02:45:01.812Z,21.81
2022-08-27T02:55:09.000Z,21.88
2022-08-27T03:05:16.083Z,21.73
2022-08-27T03:15:26.906Z,21.76
2022-08-27T03:25:32.990Z,21.80
2022-08-27T03:35:39.979Z,21.80
2022-08-27T03:45:56.631Z,21.82
2022-08-27T03:55:58.036Z,21.86
2022-08-27T04:06:03.284Z,21.84
2022-08-27T04:16:12.487Z,21.98
2022-08-27T04:26:18.300Z,22.04
2022-08-27T04:36:25.467Z,22.19
2022-08-27T04:46:31.484Z,22.18
2022-08-27T04:56:39.531Z,22.30
2022-08-27T05:06:46.049Z,22.41
2022-08-27T05:16:52.431Z,22.41
2022-08-27T05:26:58.757Z,22.58
2022-08-27T05:37:06.144Z,22.65
2022-08-27T05:47:11.918Z,22.70
2022-08-27T05:57:22.710Z,22.75
2022-08-27T06:07:28.670Z,22.76
2022-08-27T06:17:34.012Z,22.76
2022-08-27T06:27:42.188Z,22.73
2022-08-27T06:37:48.135Z,22.80
2022-08-27T06:47:55.830Z,22.77
2022-08-27T06:58:01.795Z,22.78
2022-08-27T07:08:09.551Z,22.80
2022-08-27T07:18:15.564Z,22.78
2022-08-27T07:28:23.214Z,22.77
2022-08-27T07:38:28.792Z,22.80
2022-08-27T07:48:37.869Z,22.78
2022-08-27T07:58:44.502Z,22.82
2022-08-27T08:08:53.964Z,22.84
2022-08-27T08:18:59.471Z,22.86
2022-08-27T08:29:07.296Z,22.84
2022-08-27T08:39:13.268Z,22.90
2022-08-27T08:49:21.302Z,22.95
2022-08-27T08:59:28.307Z,23.05
2022-08-27T09:09:35.557Z,23.08
2022-08-27T09:19:41.594Z,23.10
2022-08-27T09:29:49.733Z,23.15
2022-08-27T09:39:56.123Z,23.25
2022-08-27T09:50:06.916Z,23.29
2022-08-27T10:00:13.069Z,23.34
2022-08-27T10:10:21.055Z,23.38
2022-08-27T10:20:30.366Z,23.41
2022-08-27T10:30:38.991Z,23.39
2022-08-27T10:40:44.875Z,23.35
2022-08-27T10:50:52.560Z,23.38
2022-08-27T11:00:58.567Z,23.35
2022-08-27T11:11:35.032Z,23.34
2022-08-27T11:21:17.180Z,23.39
2022-08-27T11:31:24.802Z,23.41
2022-08-27T11:41:30.814Z,23.45
2022-08-27T11:51:43.588Z,23.48
2022-08-27T12:01:49.517Z,23.52
2022-08-27T12:11:56.744Z,23.53
2022-08-27T12:22:04.705Z,23.57
2022-08-27T12:32:10.605Z,23.59
2022-08-27T12:42:18.695Z,23.91
2022-08-27T12:52:24.412Z,24.28
2022-08-27T13:02:30.876Z,24.30
2022-08-27T13:12:36.688Z,24.86
2022-08-27T13:22:45.183Z,25.47
2022-08-27T13:32:51.427Z,25.34
2022-08-27T13:43:03.105Z,25.19
2022-08-27T13:53:08.994Z,24.75
2022-08-27T14:03:19.953Z,24.51
2022-08-27T14:13:25.635Z,24.51
2022-08-27T14:23:33.317Z,24.28
2022-08-27T14:33:39.075Z,24.22
2022-08-27T14:43:48.962Z,24.13
2022-08-27T14:53:54.978Z,23.94
2022-08-27T15:04:02.689Z,23.94
2022-08-27T15:14:08.806Z,23.90
2022-08-27T15:24:17.095Z,24.01
2022-08-27T15:34:23.663Z,24.09
2022-08-27T15:44:29.878Z,24.16
2022-08-27T15:54:35.947Z,24.09
2022-08-27T16:04:42.453Z,24.16
2022-08-27T16:14:48.916Z,24.19
2022-08-27T16:24:57.055Z,24.09
2022-08-27T16:35:03.051Z,23.84
2022-08-27T16:45:14.279Z,23.65
2022-08-27T16:56:47.820Z,23.58
2022-08-27T17:06:55.505Z,23.63
2022-08-27T17:17:02.333Z,23.55
2022-08-27T17:27:10.474Z,23.57
2022-08-27T17:37:16.482Z,23.57
2022-08-27T17:47:26.868Z,23.49
2022-08-27T17:57:40.143Z,23.49
2022-08-27T18:07:46.483Z,23.41
2022-08-27T18:17:53.471Z,23.41
2022-08-27T18:28:01.874Z,23.31
2022-08-27T18:38:08.245Z,23.43
2022-08-27T18:48:14.661Z,23.43
2022-08-27T18:58:20.945Z,23.45
2022-08-27T19:08:27.231Z,23.41
2022-08-27T19:18:35.041Z,23.37
2022-08-27T19:28:41.011Z,23.37
2022-08-27T19:38:49.197Z,23.33
2022-08-27T19:48:55.699Z,23.30
2022-08-27T19:59:17.549Z,23.25
2022-08-27T20:09:15.124Z,23.25
2022-08-27T20:19:21.386Z,23.25
2022-08-27T20:29:32.449Z,23.31
2022-08-27T20:39:39.060Z,23.37
2022-08-27T20:49:45.352Z,23.35
2022-08-27T20:59:51.535Z,23.34
2022-08-27T21:09:58.227Z,23.34
2022-08-27T21:20:04.378Z,23.31
2022-08-27T21:30:10.594Z,23.30
2022-08-27T21:40:18.781Z,23.29
2022-08-27T21:50:24.855Z,23.28
2022-08-27T22:00:32.760Z,23.25
2022-08-27T22:10:39.102Z,23.27
2022-08-27T22:20:47.090Z,23.25
2022-08-27T22:30:53.643Z,23.24
2022-08-27T22:41:01.726Z,23.24
2022-08-27T22:51:08.034Z,23.24
2022-08-27T23:01:19.962Z,23.21
2022-08-27T23:11:26.211Z,23.23
2022-08-27T23:21:32.355Z,23.20
2022-08-27T23:31:39.033Z,23.20
2022-08-27T23:41:45.409Z,23.20
2022-08-27T23:51:51.903Z,23.21
